Time;durP1;ratioP1;P1;durP2;ratioP2;P2;SDS_P1;SDS_P2;PMS_P1;PMS_P2;Temp;Humidity;BMP_temperature;BMP_pressure;BME280_temperature;BME280_humidity;BME280_pressure;Samples;Min_cycle;Max_cycle;Signal;HPM_P1;HPM_P2
2023/03/14 00:02:16;;;;;;;13.55;2.03;;;21.00;99.90;;;;;;5068295;28;20287;-75
2023/03/14 00:04:47;;;;;;;7.90;1.92;;;21.00;99.90;;;;;;5074143;28;20276;-79
2023/03/14 00:07:18;;;;;;;9.32;2.17;;;20.90;99.90;;;;;;5063575;28;20217;-75
2023/03/14 00:09:49;;;;;;;8.07;1.90;;;20.90;99.90;;;;;;5052902;28;20194;-79
2023/03/14 00:12:21;;;;;;;8.48;2.08;;;20.90;99.90;;;;;;5055694;28;20200;-75
2023/03/14 00:14:52;;;;;;;6.72;1.70;;;20.80;99.90;;;;;;5054531;28;20197;-77
2023/03/14 00:17:25;;;;;;;10.15;1.92;;;20.80;99.90;;;;;;5059004;28;20202;-78
2023/03/14 00:19:56;;;;;;;7.68;1.52;;;20.80;99.90;;;;;;5055657;28;20204;-76
2023/03/14 00:22:29;;;;;;;10.48;1.75;;;20.70;99.90;;;;;;5053825;28;20281;-77
2023/03/14 00:25:00;;;;;;;6.72;1.50;;;20.60;99.90;;;;;;5055356;28;20585;-78
2023/03/14 00:27:31;;;;;;;10.40;1.70;;;20.60;99.90;;;;;;5060350;28;20231;-79
2023/03/14 00:30:02;;;;;;;8.63;1.63;;;20.60;99.90;;;;;;5054330;28;20200;-77
2023/03/14 00:32:36;;;;;;;7.72;1.70;;;20.60;99.90;;;;;;5060745;28;20276;-78
2023/03/14 00:35:07;;;;;;;9.25;1.70;;;20.70;99.90;;;;;;5047812;28;20204;-78
2023/03/14 00:37:38;;;;;;;8.80;1.92;;;20.70;99.90;;;;;;5052911;28;20198;-78
2023/03/14 00:40:10;;;;;;;12.15;1.83;;;20.80;99.90;;;;;;5053605;28;20197;-78
2023/03/14 00:42:41;;;;;;;11.63;1.95;;;20.80;99.90;;;;;;5051893;28;20204;-79
2023/03/14 00:45:13;;;;;;;6.25;1.63;;;20.90;99.90;;;;;;5052859;28;20577;-77
2023/03/14 00:47:46;;;;;;;6.18;1.48;;;20.90;99.90;;;;;;5054669;28;20236;-80
2023/03/14 00:50:17;;;;;;;8.30;2.15;;;20.90;99.90;;;;;;5047138;28;20201;-79
2023/03/14 00:52:49;;;;;;;10.63;2.03;;;20.90;99.90;;;;;;5050137;28;20194;-79
2023/03/14 00:55:20;;;;;;;9.82;2.03;;;20.90;99.90;;;;;;5057462;28;20280;-79
2023/03/14 00:57:51;;;;;;;4.35;1.88;;;21.00;99.90;;;;;;5052303;28;20217;-79
2023/03/14 01:00:23;;;;;;;10.68;2.15;;;21.00;99.90;;;;;;5051226;28;20220;-77
2023/03/14 01:02:56;;;;;;;10.68;2.40;;;21.00;99.90;;;;;;5052536;28;20198;-78
2023/03/14 01:05:27;;;;;;;7.45;2.13;;;21.00;99.90;;;;;;5054363;28;20197;-78
2023/03/14 01:07:58;;;;;;;14.73;2.75;;;21.00;99.90;;;;;;5052838;28;20223;-79
2023/03/14 01:10:30;;;;;;;14.30;2.70;;;21.00;99.90;;;;;;5052978;28;20565;-79
2023/03/14 01:13:01;;;;;;;11.45;2.55;;;21.00;99.90;;;;;;5053667;28;20212;-79
2023/03/14 01:15:32;;;;;;;12.75;2.38;;;21.00;99.90;;;;;;5043451;28;20205;-78
2023/03/14 01:18:05;;;;;;;10.05;2.40;;;21.00;99.90;;;;;;5051624;28;20193;-78
2023/03/14 01:20:36;;;;;;;8.52;2.28;;;21.00;99.90;;;;;;5043305;28;20198;-77
2023/03/14 01:23:07;;;;;;;14.35;2.90;;;21.00;99.90;;;;;;5033365;28;20194;-79
2023/03/14 01:25:43;;;;;;;10.88;2.45;;;21.00;99.90;;;;;;5033107;28;20194;-79
2023/03/14 01:28:14;;;;;;;12.70;2.58;;;20.90;99.90;;;;;;5033570;28;20590;-78
2023/03/14 01:30:45;;;;;;;8.40;2.28;;;20.90;99.90;;;;;;5033579;28;20556;-79
2023/03/14 01:33:18;;;;;;;12.35;2.67;;;20.90;99.90;;;;;;5033315;28;20230;-79
2023/03/14 01:35:52;;;;;;;10.05;2.60;;;21.00;99.90;;;;;;5033519;28;20206;-80
2023/03/14 01:38:23;;;;;;;9.52;2.60;;;21.00;99.90;;;;;;5033241;28;20537;-79
2023/03/14 01:40:54;;;;;;;13.75;3.00;;;21.10;99.90;;;;;;5033493;28;20213;-79
2023/03/14 01:43:25;;;;;;;8.95;2.47;;;21.10;99.90;;;;;;5033538;28;20664;-78
2023/03/14 01:46:28;;;;;;;17.40;3.05;;;21.20;99.90;;;;;;5033379;28;20190;-78
2023/03/14 01:49:13;;;;;;;16.13;2.42;;;21.30;99.90;;;;;;5033262;28;20716;-80
2023/03/14 01:51:53;;;;;;;11.60;2.45;;;21.20;99.90;;;;;;5033108;28;20562;-79
2023/03/14 01:54:30;;;;;;;9.80;2.45;;;21.30;99.90;;;;;;5033774;28;20197;-80
2023/03/14 01:57:05;;;;;;;11.43;2.10;;;21.30;99.90;;;;;;5033156;28;20638;-75
2023/03/14 01:59:37;;;;;;;9.98;2.20;;;21.40;99.90;;;;;;5033427;28;20197;-75
2023/03/14 02:02:09;;;;;;;13.52;2.33;;;21.50;99.90;;;;;;5033288;28;20564;-76
2023/03/14 02:04:43;;;;;;;7.47;2.22;;;21.60;99.90;;;;;;5033290;28;20194;-76
2023/03/14 02:07:19;;;;;;;8.30;2.22;;;21.60;99.90;;;;;;5032860;28;20214;-75
2023/03/14 02:09:50;;;;;;;14.00;2.85;;;21.70;99.90;;;;;;5033201;28;20205;-75
2023/03/14 02:12:23;;;;;;;8.13;1.80;;;21.80;99.90;;;;;;5033159;28;20190;-76
2023/03/14 02:14:55;;;;;;;11.20;2.17;;;21.90;99.90;;;;;;5032910;28;20194;-75
2023/03/14 02:17:27;;;;;;;11.68;2.50;;;22.00;99.90;;;;;;5032858;28;20194;-75
2023/03/14 02:20:19;;;;;;;12.20;2.65;;;22.00;99.90;;;;;;5032848;28;20561;-75
2023/03/14 02:22:51;;;;;;;12.32;2.50;;;22.00;99.90;;;;;;5032788;28;20201;-76
2023/03/14 02:25:32;;;;;;;9.02;2.25;;;22.00;99.90;;;;;;5033206;28;20194;-77
2023/03/14 02:28:06;;;;;;;13.80;2.53;;;21.90;99.90;;;;;;5032924;28;20225;-76
2023/03/14 02:30:37;;;;;;;8.18;2.30;;;21.80;99.90;;;;;;5032788;28;20201;-76
2023/03/14 02:33:10;;;;;;;8.52;2.20;;;21.80;99.90;;;;;;5032912;28;20234;-75
2023/03/14 02:35:44;;;;;;;13.27;2.40;;;21.80;99.90;;;;;;5032795;28;20238;-78
2023/03/14 02:38:22;;;;;;;18.45;3.17;;;21.90;99.90;;;;;;5036621;28;20658;-78
2023/03/14 02:40:53;;;;;;;6.93;2.08;;;21.90;99.90;;;;;;5036520;28;20193;-76
2023/03/14 02:43:26;;;;;;;14.88;2.67;;;21.90;99.90;;;;;;5036581;28;20201;-76
2023/03/14 02:45:58;;;;;;;12.38;2.75;;;22.00;99.90;;;;;;5036600;28;20195;-77
2023/03/14 02:48:32;;;;;;;11.95;3.00;;;21.90;99.90;;;;;;5036340;28;20227;-77
2023/03/14 02:51:04;;;;;;;9.35;2.30;;;21.90;99.90;;;;;;5036070;28;20278;-78
2023/03/14 02:53:37;;;;;;;7.00;1.80;;;21.80;99.90;;;;;;5050436;28;20198;-78
2023/03/14 02:56:10;;;;;;;11.85;3.33;;;21.80;99.90;;;;;;5056253;28;20189;-76
2023/03/14 02:58:43;;;;;;;9.95;2.30;;;21.80;99.90;;;;;;5056021;28;20228;-77
2023/03/14 03:01:14;;;;;;;10.00;2.28;;;21.80;99.90;;;;;;5056144;28;20200;-76
2023/03/14 03:03:45;;;;;;;6.97;2.55;;;21.80;99.90;;;;;;5055998;28;20197;-77
2023/03/14 03:06:16;;;;;;;12.82;2.97;;;21.90;99.90;;;;;;5055911;28;20198;-76
2023/03/14 03:08:47;;;;;;;9.38;2.80;;;21.80;99.90;;;;;;5055824;28;20222;-76
2023/03/14 03:11:18;;;;;;;10.95;2.70;;;21.80;99.90;;;;;;5056038;28;20193;-78
2023/03/14 03:13:51;;;;;;;13.00;2.45;;;21.90;99.90;;;;;;5055891;28;20193;-77
2023/03/14 03:16:22;;;;;;;9.77;2.15;;;21.90;99.90;;;;;;5056263;28;20185;-77
2023/03/14 03:18:53;;;;;;;13.07;2.38;;;22.00;99.90;;;;;;5055860;28;20198;-77
2023/03/14 03:21:24;;;;;;;11.75;2.30;;;21.90;99.90;;;;;;5056460;28;20200;-76
2023/03/14 03:23:56;;;;;;;10.77;2.55;;;21.80;99.90;;;;;;5055695;28;20633;-76
2023/03/14 03:26:27;;;;;;;10.30;2.60;;;21.80;99.90;;;;;;5055796;28;20197;-77
2023/03/14 03:29:00;;;;;;;11.93;2.60;;;21.80;99.90;;;;;;5055669;28;20221;-78
2023/03/14 03:31:31;;;;;;;11.90;2.38;;;21.70;99.90;;;;;;5055613;28;20533;-77
2023/03/14 03:34:02;;;;;;;9.70;2.45;;;21.80;99.90;;;;;;5055023;28;20237;-75
2023/03/14 03:36:33;;;;;;;10.18;2.50;;;21.80;99.90;;;;;;5055547;28;20190;-76
2023/03/14 03:39:04;;;;;;;8.13;2.10;;;21.80;99.90;;;;;;5055700;28;20205;-76
2023/03/14 03:41:36;;;;;;;8.18;2.03;;;21.80;99.90;;;;;;5055351;28;20194;-76
2023/03/14 03:44:09;;;;;;;8.45;1.92;;;21.80;99.90;;;;;;5055339;28;20190;-76
2023/03/14 03:46:40;;;;;;;6.32;1.77;;;21.70;99.90;;;;;;5055365;28;20190;-76
2023/03/14 03:49:11;;;;;;;5.82;1.63;;;21.60;99.90;;;;;;5054529;28;20222;-76
2023/03/14 03:51:45;;;;;;;4.70;1.50;;;21.60;99.90;;;;;;5055344;28;20652;-76
2023/03/14 03:54:16;;;;;;;7.05;2.00;;;21.50;99.90;;;;;;5052788;28;20201;-76
2023/03/14 03:56:47;;;;;;;7.45;2.20;;;21.50;99.90;;;;;;5055004;28;20539;-76
2023/03/14 03:59:20;;;;;;;6.28;2.08;;;21.50;99.90;;;;;;5055161;28;20645;-75
2023/03/14 04:01:51;;;;;;;9.30;2.25;;;21.50;99.90;;;;;;5046683;28;20217;-77
2023/03/14 04:04:22;;;;;;;6.32;1.80;;;21.50;99.90;;;;;;5034838;28;20634;-75
2023/03/14 04:06:53;;;;;;;4.38;1.60;;;21.50;99.90;;;;;;5046876;28;20197;-75
2023/03/14 04:09:24;;;;;;;6.32;1.77;;;21.50;99.90;;;;;;5055088;28;20201;-75
2023/03/14 04:11:55;;;;;;;4.18;1.70;;;21.50;99.90;;;;;;5055042;28;20208;-75
2023/03/14 04:14:28;;;;;;;7.20;1.92;;;21.50;99.90;;;;;;5053166;28;20193;-76
2023/03/14 04:16:59;;;;;;;5.40;1.70;;;21.50;99.90;;;;;;5054354;28;20197;-77
2023/03/14 04:19:31;;;;;;;6.05;1.77;;;21.40;99.90;;;;;;5055173;28;20201;-76
2023/03/14 04:22:02;;;;;;;3.05;1.40;;;21.40;99.90;;;;;;5055917;28;20198;-75
2023/03/14 04:24:33;;;;;;;5.35;1.83;;;21.40;99.90;;;;;;5055793;28;20198;-75
2023/03/14 04:27:04;;;;;;;5.75;1.75;;;21.40;99.90;;;;;;5055018;28;20197;-75
2023/03/14 04:29:37;;;;;;;7.88;1.80;;;21.40;99.90;;;;;;5056168;28;20198;-75
2023/03/14 04:32:08;;;;;;;4.65;1.70;;;21.40;99.90;;;;;;5052998;28;20202;-75
2023/03/14 04:34:39;;;;;;;7.80;2.03;;;21.50;99.90;;;;;;5053569;28;20229;-76
2023/03/14 04:37:10;;;;;;;5.35;2.00;;;21.50;99.90;;;;;;5058333;28;20657;-75
2023/03/14 04:39:41;;;;;;;6.53;1.73;;;21.50;99.90;;;;;;5059688;28;20193;-76
2023/03/14 04:42:12;;;;;;;6.75;2.58;;;21.60;99.90;;;;;;5053725;28;20194;-77
2023/03/14 04:44:46;;;;;;;8.27;2.20;;;21.60;99.90;;;;;;5054415;28;20633;-76
2023/03/14 04:47:17;;;;;;;5.28;2.00;;;21.60;99.90;;;;;;5053960;28;20647;-77
2023/03/14 04:49:48;;;;;;;4.95;1.83;;;21.60;99.90;;;;;;5052986;28;20205;-77
2023/03/14 04:52:19;;;;;;;9.07;2.10;;;21.60;99.90;;;;;;5053635;28;20194;-75
2023/03/14 04:54:51;;;;;;;4.40;1.80;;;21.70;99.90;;;;;;5053731;28;20193;-76
2023/03/14 04:57:22;;;;;;;6.10;2.00;;;21.70;99.90;;;;;;5053755;28;20222;-76
2023/03/14 04:59:56;;;;;;;8.05;1.90;;;21.80;99.90;;;;;;5053073;28;20202;-76
2023/03/14 05:02:27;;;;;;;8.55;2.30;;;21.70;99.90;;;;;;5055879;28;20200;-76
2023/03/14 05:04:58;;;;;;;6.32;2.30;;;21.90;99.90;;;;;;5054848;28;20201;-76
2023/03/14 05:07:29;;;;;;;8.25;2.20;;;21.90;99.90;;;;;;5053957;28;20193;-75
2023/03/14 05:10:00;;;;;;;4.88;2.10;;;21.90;99.90;;;;;;5053982;28;20197;-77
2023/03/14 05:12:31;;;;;;;7.28;1.98;;;22.00;99.90;;;;;;5052516;28;20199;-76
2023/03/14 05:15:04;;;;;;;11.70;2.58;;;22.00;99.90;;;;;;5053316;28;20185;-78
2023/03/14 05:17:37;;;;;;;6.72;2.40;;;22.00;99.90;;;;;;5053214;28;20209;-75
2023/03/14 05:20:12;;;;;;;8.75;2.47;;;22.00;99.90;;;;;;5052910;28;20208;-74
2023/03/14 05:22:44;;;;;;;9.23;2.30;;;22.00;99.90;;;;;;5053664;28;20192;-75
2023/03/14 05:25:15;;;;;;;14.77;2.58;;;22.10;99.90;;;;;;5053407;28;20200;-75
2023/03/14 05:27:46;;;;;;;9.10;2.08;;;22.10;99.90;;;;;;5051056;28;20221;-75
2023/03/14 05:30:20;;;;;;;8.15;2.25;;;22.10;99.90;;;;;;5052690;28;20243;-76
2023/03/14 05:32:51;;;;;;;18.80;2.97;;;22.20;99.90;;;;;;5033504;28;20573;-75
2023/03/14 05:35:22;;;;;;;9.90;2.30;;;22.20;99.90;;;;;;5033430;28;20201;-76
2023/03/14 05:37:53;;;;;;;10.90;2.38;;;22.10;99.90;;;;;;5033381;28;20194;-75
2023/03/14 05:40:24;;;;;;;12.18;2.22;;;22.20;99.90;;;;;;5033288;28;20213;-75
2023/03/14 05:42:55;;;;;;;10.85;2.60;;;22.30;99.90;;;;;;5048133;28;20197;-75
2023/03/14 05:45:28;;;;;;;11.63;2.53;;;22.30;99.90;;;;;;5052021;28;20189;-75
2023/03/14 05:47:59;;;;;;;11.80;2.55;;;22.40;99.90;;;;;;5056750;28;20217;-76
2023/03/14 05:50:30;;;;;;;12.25;2.40;;;22.50;99.90;;;;;;5053182;28;20185;-75
2023/03/14 05:53:02;;;;;;;12.45;2.55;;;22.50;99.90;;;;;;5053186;28;20610;-75
2023/03/14 05:55:33;;;;;;;11.52;2.78;;;22.60;99.90;;;;;;5051447;28;20197;-76
2023/03/14 05:58:04;;;;;;;13.68;2.50;;;22.60;99.90;;;;;;5053352;28;20233;-75
2023/03/14 06:00:37;;;;;;;12.07;2.60;;;22.60;99.90;;;;;;5052942;28;20207;-75
2023/03/14 06:03:08;;;;;;;12.20;2.80;;;22.60;99.90;;;;;;5052679;28;20197;-75
2023/03/14 06:05:39;;;;;;;12.48;2.10;;;22.60;99.90;;;;;;5051955;28;20201;-74
2023/03/14 06:08:10;;;;;;;10.75;2.50;;;22.70;99.90;;;;;;5054037;28;20284;-75
2023/03/14 06:10:41;;;;;;;14.65;2.60;;;22.70;99.90;;;;;;5051406;28;20554;-75
2023/03/14 06:13:12;;;;;;;12.27;2.78;;;22.70;99.90;;;;;;5061340;28;20193;-75
2023/03/14 06:15:46;;;;;;;12.35;2.53;;;22.80;99.90;;;;;;5067379;28;20567;-75
2023/03/14 06:18:17;;;;;;;14.13;2.75;;;22.80;99.90;;;;;;5055633;28;20551;-75
2023/03/14 06:20:48;;;;;;;11.65;2.50;;;22.80;99.90;;;;;;5056936;28;20205;-75
2023/03/14 06:23:19;;;;;;;13.18;2.78;;;22.70;99.90;;;;;;5054882;28;20197;-75
2023/03/14 06:25:50;;;;;;;11.65;2.47;;;22.70;99.90;;;;;;5066447;28;20197;-74
2023/03/14 06:28:21;;;;;;;14.25;2.42;;;22.70;99.90;;;;;;5056791;28;20689;-75
2023/03/14 06:30:54;;;;;;;11.75;2.53;;;22.80;99.90;;;;;;5050380;28;20572;-76
2023/03/14 06:33:25;;;;;;;10.10;2.25;;;22.80;99.90;;;;;;5057963;28;20239;-75
2023/03/14 06:35:56;;;;;;;13.48;2.67;;;22.80;99.90;;;;;;5054355;28;20205;-76
2023/03/14 06:38:28;;;;;;;10.27;2.30;;;22.80;99.90;;;;;;5056638;28;20193;-75
2023/03/14 06:40:59;;;;;;;13.20;3.08;;;22.80;99.90;;;;;;5058255;28;20200;-75
2023/03/14 06:43:30;;;;;;;13.05;2.20;;;22.80;99.90;;;;;;5054499;28;20554;-75
2023/03/14 06:46:03;;;;;;;12.10;2.42;;;22.80;99.90;;;;;;5067462;28;20655;-76
2023/03/14 06:48:34;;;;;;;10.48;2.47;;;22.80;99.90;;;;;;5064302;28;20213;-75
2023/03/14 06:51:05;;;;;;;11.95;2.28;;;22.80;99.90;;;;;;5057238;28;20202;-75
2023/03/14 06:53:36;;;;;;;11.10;2.30;;;22.80;99.90;;;;;;5056292;28;20204;-75
2023/03/14 06:56:07;;;;;;;10.88;2.10;;;22.80;99.90;;;;;;5054118;28;20197;-76
2023/03/14 06:58:39;;;;;;;16.70;3.05;;;22.80;99.90;;;;;;5056596;28;20198;-75
2023/03/14 07:01:24;;;;;;;12.13;2.20;;;22.80;99.90;;;;;;5056269;28;20197;-76
2023/03/14 07:03:55;;;;;;;10.30;2.17;;;22.80;99.90;;;;;;5059236;28;20232;-76
2023/03/14 07:06:26;;;;;;;5.55;1.67;;;22.80;99.90;;;;;;5055098;28;20543;-75
2023/03/14 07:08:57;;;;;;;9.20;2.00;;;22.70;99.90;;;;;;5059913;28;20214;-76
2023/03/14 07:11:28;;;;;;;11.15;2.58;;;22.70;99.90;;;;;;5057393;28;20221;-77
2023/03/14 07:13:59;;;;;;;11.18;2.20;;;22.70;99.90;;;;;;5054796;28;20210;-76
2023/03/14 07:16:32;;;;;;;15.55;2.30;;;22.60;99.90;;;;;;5057428;28;20193;-75
2023/03/14 07:19:04;;;;;;;14.25;2.63;;;22.60;99.90;;;;;;5068068;28;20189;-76
2023/03/14 07:21:35;;;;;;;7.20;2.00;;;22.60;99.90;;;;;;5071529;28;20193;-76
2023/03/14 07:24:06;;;;;;;12.73;2.50;;;22.50;99.90;;;;;;5054796;28;20197;-76
2023/03/14 07:26:37;;;;;;;11.43;2.08;;;22.50;99.90;;;;;;5054877;28;20536;-75
2023/03/14 07:29:08;;;;;;;12.95;2.50;;;22.50;99.90;;;;;;5054146;28;20580;-76
2023/03/14 07:31:45;;;;;;;14.27;2.60;;;22.40;99.90;;;;;;5054942;28;20673;-76
2023/03/14 07:34:16;;;;;;;16.80;2.80;;;22.40;99.90;;;;;;5073784;28;20246;-76
2023/03/14 07:36:47;;;;;;;11.18;2.65;;;22.20;99.90;;;;;;5055604;28;20205;-77
2023/03/14 07:39:18;;;;;;;15.77;3.60;;;21.90;99.90;;;;;;5055536;28;20197;-80
2023/03/14 07:41:49;;;;;;;5.75;1.92;;;21.60;99.90;;;;;;5051914;28;20200;-81
2023/03/14 07:44:20;;;;;;;8.45;2.83;;;21.40;99.90;;;;;;5072500;28;20189;-81
2023/03/14 07:46:53;;;;;;;3.58;1.38;;;21.30;99.90;;;;;;5063008;28;20197;-79
2023/03/14 07:49:24;;;;;;;5.50;1.40;;;21.20;99.90;;;;;;5054609;28;20218;-76
2023/03/14 07:51:56;;;;;;;4.15;1.35;;;21.20;99.90;;;;;;5055260;28;20229;-77
2023/03/14 07:54:27;;;;;;;3.65;1.42;;;21.10;99.90;;;;;;5054699;28;20197;-79
2023/03/14 07:56:58;;;;;;;3.75;1.10;;;21.20;99.90;;;;;;5054529;28;20225;-76
2023/03/14 07:59:30;;;;;;;4.70;1.20;;;21.10;99.90;;;;;;5054625;28;20706;-76
2023/03/14 08:02:05;;;;;;;2.60;1.00;;;21.10;99.90;;;;;;5055027;28;20273;-76
2023/03/14 08:04:37;;;;;;;3.33;1.20;;;21.10;99.90;;;;;;5054302;28;20244;-76
2023/03/14 08:07:08;;;;;;;5.25;1.40;;;21.10;99.90;;;;;;5054496;28;20206;-76
2023/03/14 08:09:39;;;;;;;3.03;1.30;;;21.10;99.90;;;;;;5056347;28;20699;-75
2023/03/14 08:12:11;;;;;;;3.17;1.40;;;21.10;99.90;;;;;;5052868;28;20213;-76
2023/03/14 08:14:42;;;;;;;9.25;1.65;;;21.10;99.90;;;;;;5061493;28;20205;-76
2023/03/14 08:17:15;;;;;;;2.85;1.10;;;21.10;99.90;;;;;;5053903;28;20194;-75
2023/03/14 08:19:46;;;;;;;4.47;1.60;;;21.10;99.90;;;;;;5042522;28;20559;-75
2023/03/14 08:22:17;;;;;;;4.35;1.60;;;21.10;99.90;;;;;;5050685;28;20202;-76
2023/03/14 08:24:48;;;;;;;5.45;1.70;;;21.10;99.90;;;;;;5056299;28;20570;-75
2023/03/14 08:27:19;;;;;;;5.00;1.73;;;21.10;99.90;;;;;;5053831;28;20653;-75
2023/03/14 08:29:51;;;;;;;5.32;1.92;;;21.10;99.90;;;;;;5059000;28;20225;-75
2023/03/14 08:32:24;;;;;;;6.50;1.95;;;21.10;99.90;;;;;;5052902;28;20201;-75
2023/03/14 08:34:55;;;;;;;7.22;1.95;;;21.10;99.90;;;;;;5056422;28;20200;-75
2023/03/14 08:37:26;;;;;;;4.30;1.73;;;21.10;99.90;;;;;;5050586;28;20202;-75
2023/03/14 08:39:58;;;;;;;3.45;1.45;;;21.10;99.90;;;;;;5052277;28;20661;-75
2023/03/14 08:42:32;;;;;;;3.72;1.67;;;21.10;99.90;;;;;;5053674;28;20569;-75
2023/03/14 08:45:03;;;;;;;3.50;1.50;;;21.10;99.90;;;;;;5052626;28;20198;-75
2023/03/14 08:47:37;;;;;;;4.60;1.50;;;21.10;99.90;;;;;;5051525;28;20281;-75
2023/03/14 08:50:09;;;;;;;6.07;1.50;;;21.10;99.90;;;;;;5054117;28;20259;-75
2023/03/14 08:52:41;;;;;;;4.78;1.70;;;21.10;99.90;;;;;;5049439;28;20209;-75
2023/03/14 08:55:12;;;;;;;6.65;2.03;;;21.10;99.90;;;;;;5051916;28;20202;-79
2023/03/14 08:57:44;;;;;;;6.65;1.90;;;21.00;99.90;;;;;;5050962;28;20194;-75
2023/03/14 09:00:16;;;;;;;5.15;1.85;;;21.00;99.90;;;;;;5053205;28;20285;-74
2023/03/14 09:02:50;;;;;;;4.43;1.90;;;21.00;99.90;;;;;;5052424;28;20280;-75
2023/03/14 09:05:21;;;;;;;7.03;2.00;;;21.00;99.90;;;;;;5046951;28;20197;-75
2023/03/14 09:07:52;;;;;;;4.50;1.92;;;21.00;99.90;;;;;;5052796;28;20549;-76
2023/03/14 09:10:23;;;;;;;4.18;1.90;;;21.00;99.90;;;;;;5052635;28;20213;-75
2023/03/14 09:12:54;;;;;;;6.70;2.15;;;21.00;99.90;;;;;;5055806;28;20565;-77
2023/03/14 09:15:25;;;;;;;5.35;2.03;;;21.00;99.90;;;;;;5046395;28;20676;-75
2023/03/14 09:17:58;;;;;;;9.43;2.35;;;21.00;99.90;;;;;;5051733;28;20200;-75
2023/03/14 09:20:30;;;;;;;6.13;2.53;;;21.00;99.90;;;;;;5052438;28;20194;-77
2023/03/14 09:23:01;;;;;;;6.93;2.40;;;21.00;99.90;;;;;;5053102;28;20224;-75
2023/03/14 09:25:32;;;;;;;5.80;2.60;;;21.00;99.90;;;;;;5051933;28;20194;-76
2023/03/14 09:28:03;;;;;;;7.20;2.33;;;21.00;99.90;;;;;;5051901;28;20204;-77
2023/03/14 09:30:34;;;;;;;4.18;2.17;;;21.00;99.90;;;;;;5049142;28;20582;-75
2023/03/14 09:33:07;;;;;;;5.15;2.50;;;21.00;99.90;;;;;;5053076;28;20233;-77
2023/03/14 09:35:40;;;;;;;5.07;2.13;;;21.00;99.90;;;;;;5050415;28;20286;-75
2023/03/14 09:38:11;;;;;;;7.40;2.30;;;21.00;99.90;;;;;;5047726;28;20203;-75
2023/03/14 09:40:42;;;;;;;4.75;2.15;;;21.00;99.90;;;;;;5055138;28;20242;-76
2023/03/14 09:43:16;;;;;;;5.53;2.17;;;21.00;99.90;;;;;;5051066;28;20311;-76
2023/03/14 09:45:50;;;;;;;7.30;2.38;;;21.00;99.90;;;;;;5046965;28;20231;-75
2023/03/14 09:48:24;;;;;;;7.18;3.03;;;21.00;99.90;;;;;;5052193;28;20208;-75
2023/03/14 09:50:57;;;;;;;6.28;2.40;;;21.00;99.90;;;;;;5052559;28;20236;-77
2023/03/14 09:53:33;;;;;;;5.28;2.60;;;21.00;99.90;;;;;;5051794;28;20202;-77
2023/03/14 09:56:04;;;;;;;5.60;2.85;;;21.10;99.90;;;;;;5054637;28;20189;-76
2023/03/14 09:58:35;;;;;;;5.75;2.38;;;21.00;99.90;;;;;;5052145;28;20193;-75
2023/03/14 10:01:07;;;;;;;7.57;2.50;;;21.10;99.90;;;;;;5052271;28;20209;-76
2023/03/14 10:03:40;;;;;;;4.03;2.05;;;21.00;99.90;;;;;;5049399;28;20213;-80
2023/03/14 10:06:15;;;;;;;6.68;2.40;;;21.00;99.90;;;;;;5049204;28;20193;-76
2023/03/14 10:08:47;;;;;;;5.13;2.22;;;21.00;99.90;;;;;;5046366;28;20189;-76
2023/03/14 10:11:20;;;;;;;6.35;2.30;;;21.00;99.90;;;;;;5049784;28;20601;-76
2023/03/14 10:14:06;;;;;;;5.65;2.30;;;21.00;99.90;;;;;;5051825;28;20587;-78
2023/03/14 10:16:40;;;;;;;6.57;2.47;;;21.00;99.90;;;;;;5035928;28;20197;-77
2023/03/14 10:19:15;;;;;;;4.95;2.15;;;21.00;99.90;;;;;;5051748;28;20692;-77
2023/03/14 10:21:52;;;;;;;7.60;2.22;;;20.90;99.90;;;;;;5051479;28;20200;-76
2023/03/14 10:24:30;;;;;;;7.93;2.35;;;21.00;99.90;;;;;;5052357;28;20192;-76
2023/03/14 10:27:04;;;;;;;4.63;2.10;;;20.90;99.90;;;;;;5051205;28;20201;-76
2023/03/14 10:29:36;;;;;;;7.85;2.45;;;20.90;99.90;;;;;;5035427;28;20223;-77
2023/03/14 10:32:08;;;;;;;7.97;2.33;;;21.00;99.90;;;;;;5051463;28;20200;-75
2023/03/14 10:34:42;;;;;;;4.90;2.10;;;21.00;99.90;;;;;;5050821;28;20225;-76
2023/03/14 10:37:25;;;;;;;5.00;2.13;;;21.00;99.90;;;;;;5052697;28;20197;-80
2023/03/14 10:39:58;;;;;;;6.63;2.15;;;21.00;99.90;;;;;;5042678;28;20284;-76
2023/03/14 10:42:31;;;;;;;5.15;2.22;;;21.00;99.90;;;;;;5051550;28;20208;-76
2023/03/14 10:45:07;;;;;;;5.55;1.80;;;21.00;99.90;;;;;;5051137;28;20649;-75
2023/03/14 10:47:38;;;;;;;4.55;2.00;;;21.10;99.90;;;;;;5050624;28;20197;-75
2023/03/14 10:50:27;;;;;;;4.93;1.92;;;21.10;99.90;;;;;;5057756;28;20689;-76
2023/03/14 10:53:00;;;;;;;7.60;2.00;;;21.10;99.90;;;;;;5041244;28;20244;-75
2023/03/14 10:55:41;;;;;;;6.13;2.17;;;21.10;99.90;;;;;;5051464;28;20193;-75
2023/03/14 10:58:23;;;;;;;6.20;2.20;;;21.10;99.90;;;;;;5053271;28;20201;-75
2023/03/14 11:01:11;;;;;;;5.22;1.88;;;21.10;99.90;;;;;;5055417;28;20193;-76
2023/03/14 11:03:46;;;;;;;6.03;1.80;;;21.10;99.90;;;;;;5057382;28;20197;-82
2023/03/14 11:06:26;;;;;;;4.68;2.05;;;21.10;99.90;;;;;;5053459;28;20193;-80
2023/03/14 11:09:05;;;;;;;8.35;2.10;;;21.10;99.90;;;;;;5035732;28;20194;-75
2023/03/14 11:11:36;;;;;;;6.97;2.50;;;21.10;99.90;;;;;;5053406;28;20244;-76
2023/03/14 11:14:18;;;;;;;6.05;2.35;;;21.10;99.90;;;;;;5055633;28;20661;-82
2023/03/14 11:16:59;;;;;;;5.43;1.90;;;21.10;99.90;;;;;;5056143;28;20569;-83
2023/03/14 11:19:56;;;;;;;6.53;2.47;;;21.10;99.90;;;;;;5061087;28;20217;-84
2023/03/14 11:22:39;;;;;;;6.10;2.20;;;21.10;99.90;;;;;;5047835;28;20198;-84
2023/03/14 11:25:29;;;;;;;6.63;2.20;;;21.10;99.90;;;;;;5054494;28;20247;-84
2023/03/14 11:28:11;;;;;;;6.97;2.42;;;21.10;99.90;;;;;;5035637;28;20609;-77
2023/03/14 11:30:46;;;;;;;5.78;2.35;;;21.10;99.90;;;;;;5035864;28;20222;-76
2023/03/14 11:33:20;;;;;;;3.75;1.88;;;21.10;99.90;;;;;;5037432;28;20237;-74
2023/03/14 11:35:55;;;;;;;4.32;2.10;;;21.10;99.90;;;;;;5061160;28;20665;-74
2023/03/14 11:38:35;;;;;;;5.53;2.10;;;21.10;99.90;;;;;;5055064;28;20193;-74
2023/03/14 11:41:12;;;;;;;4.63;1.90;;;21.10;99.90;;;;;;5059392;28;20648;-75
2023/03/14 11:43:44;;;;;;;5.35;2.40;;;21.10;99.90;;;;;;5052208;28;20570;-79
2023/03/14 11:46:20;;;;;;;6.50;2.05;;;21.10;99.90;;;;;;5055168;28;20270;-75
2023/03/14 11:49:02;;;;;;;4.50;1.90;;;21.10;99.90;;;;;;5057318;28;20574;-78
2023/03/14 11:51:37;;;;;;;3.45;1.70;;;21.10;99.90;;;;;;5052629;28;20754;-73
2023/03/14 11:54:20;;;;;;;3.97;2.05;;;21.10;99.90;;;;;;5054490;28;20198;-75
2023/03/14 11:56:54;;;;;;;7.22;1.98;;;21.00;99.90;;;;;;5054069;28;20197;-75
2023/03/14 11:59:31;;;;;;;5.18;1.85;;;21.00;99.90;;;;;;5053735;28;20236;-75
2023/03/14 12:02:06;;;;;;;5.20;2.00;;;21.00;99.90;;;;;;5054445;28;20219;-74
2023/03/14 12:04:50;;;;;;;4.57;2.08;;;21.00;99.90;;;;;;5057588;28;20193;-74
2023/03/14 12:07:24;;;;;;;4.70;2.10;;;21.00;99.90;;;;;;5055104;28;20190;-75
2023/03/14 12:09:57;;;;;;;3.30;2.08;;;21.00;99.90;;;;;;5056277;28;20221;-74
2023/03/14 12:12:31;;;;;;;7.55;2.13;;;21.00;99.90;;;;;;5056817;28;20193;-74
2023/03/14 12:15:03;;;;;;;5.25;1.75;;;21.00;99.90;;;;;;5054315;28;20190;-75
2023/03/14 12:17:42;;;;;;;4.72;1.75;;;20.90;99.90;;;;;;5039605;28;20224;-74
2023/03/14 12:20:22;;;;;;;6.30;1.90;;;20.90;99.90;;;;;;5053164;28;20211;-74
2023/03/14 12:22:56;;;;;;;4.40;1.92;;;20.90;99.90;;;;;;5053708;28;20198;-74
2023/03/14 12:25:31;;;;;;;3.33;1.60;;;20.90;99.90;;;;;;5056565;28;20200;-75
2023/03/14 12:28:20;;;;;;;6.25;2.03;;;20.90;99.90;;;;;;5054472;28;20542;-79
2023/03/14 12:30:51;;;;;;;4.05;1.67;;;20.90;99.90;;;;;;5054066;28;20213;-78
2023/03/14 12:33:32;;;;;;;4.07;1.75;;;20.90;99.90;;;;;;5054467;28;20221;-75
2023/03/14 12:36:05;;;;;;;5.68;1.90;;;20.90;99.90;;;;;;5054468;28;20197;-75
2023/03/14 12:38:58;;;;;;;4.97;1.85;;;20.90;99.90;;;;;;5054386;28;20193;-75
2023/03/14 12:41:39;;;;;;;5.82;1.70;;;20.90;99.90;;;;;;5070144;28;20193;-75
2023/03/14 12:44:45;;;;;;;7.53;2.10;;;20.90;99.90;;;;;;5074303;28;20193;-76
2023/03/14 12:47:47;;;;;;;4.53;1.80;;;20.90;99.90;;;;;;5038835;28;20677;-75
2023/03/14 12:50:36;;;;;;;4.40;1.73;;;20.90;99.90;;;;;;5049650;28;20669;-77
2023/03/14 12:53:46;;;;;;;5.68;1.90;;;20.90;99.90;;;;;;5052938;28;20213;-76
2023/03/14 12:56:35;;;;;;;6.43;1.88;;;20.90;99.90;;;;;;5048744;28;20197;-75
2023/03/14 12:59:26;;;;;;;5.80;2.10;;;20.90;99.90;;;;;;5053171;28;20193;-74
2023/03/14 13:02:02;;;;;;;6.38;1.80;;;20.90;99.90;;;;;;5050997;28;20692;-76
2023/03/14 13:04:36;;;;;;;4.57;1.75;;;20.80;99.90;;;;;;5051480;28;20189;-74
2023/03/14 13:07:13;;;;;;;5.68;1.77;;;20.80;99.90;;;;;;5049299;28;20193;-77
2023/03/14 13:10:06;;;;;;;5.93;2.10;;;20.80;99.90;;;;;;5051834;28;20193;-75
2023/03/14 13:12:48;;;;;;;4.22;1.80;;;20.80;99.90;;;;;;5042082;28;20676;-82
2023/03/14 13:15:33;;;;;;;3.90;1.80;;;20.80;99.90;;;;;;5051841;28;20202;-75
2023/03/14 13:18:11;;;;;;;3.97;2.03;;;20.80;99.90;;;;;;5048142;28;20711;-74